sensor_id;sensor_type;location;lat;lon;timestamp;pressure;altitude;pressure_sealevel;temperature;humidity
67029;BME280;53934;52.142;11.738;2022-11-20T00:01:05;100778.28;;;-0.09;79.22
67029;BME280;53934;52.142;11.738;2022-11-20T00:03:32;100787.72;;;-0.10;79.07
67029;BME280;53934;52.142;11.738;2022-11-20T00:05:59;100782.38;;;0.15;78.50
67029;BME280;53934;52.142;11.738;2022-11-20T00:08:26;100775.41;;;0.23;78.43
67029;BME280;53934;52.142;11.738;2022-11-20T00:10:52;100765.16;;;0.15;78.24
67029;BME280;53934;52.142;11.738;2022-11-20T00:13:19;100776.59;;;-0.18;79.71
67029;BME280;53934;52.142;11.738;2022-11-20T00:15:45;100768.06;;;-0.26;80.32
67029;BME280;53934;52.142;11.738;2022-11-20T00:18:13;100774.03;;;-0.18;80.17
67029;BME280;53934;52.142;11.738;2022-11-20T00:20:40;100773.91;;;-0.03;79.74
67029;BME280;53934;52.142;11.738;2022-11-20T00:23:06;100765.94;;;0.23;78.41
67029;BME280;53934;52.142;11.738;2022-11-20T00:25:33;100762.72;;;0.03;79.21
67029;BME280;53934;52.142;11.738;2022-11-20T00:28:00;100763.34;;;0.28;78.44
67029;BME280;53934;52.142;11.738;2022-11-20T00:30:26;100769.81;;;-0.26;79.88
67029;BME280;53934;52.142;11.738;2022-11-20T00:32:52;100765.59;;;-0.39;81.38
67029;BME280;53934;52.142;11.738;2022-11-20T00:35:20;100765.69;;;-0.53;82.21
67029;BME280;53934;52.142;11.738;2022-11-20T00:37:47;100767.47;;;-0.64;82.75
67029;BME280;53934;52.142;11.738;2022-11-20T00:40:13;100760.34;;;-0.23;81.95
67029;BME280;53934;52.142;11.738;2022-11-20T00:42:40;100755.09;;;-0.14;80.87
67029;BME280;53934;52.142;11.738;2022-11-20T00:45:06;100764.41;;;0.06;80.37
67029;BME280;53934;52.142;11.738;2022-11-20T00:47:33;100758.84;;;0.45;78.56
67029;BME280;53934;52.142;11.738;2022-11-20T00:49:59;100759.47;;;0.67;78.07
67029;BME280;53934;52.142;11.738;2022-11-20T00:52:27;100755.72;;;0.93;76.31
67029;BME280;53934;52.142;11.738;2022-11-20T00:54:54;100756.81;;;0.76;76.70
67029;BME280;53934;52.142;11.738;2022-11-20T00:57:20;100743.03;;;0.77;77.09
67029;BME280;53934;52.142;11.738;2022-11-20T00:59:46;100752.09;;;1.10;75.74
67029;BME280;53934;52.142;11.738;2022-11-20T01:02:13;100741.72;;;1.13;75.03
67029;BME280;53934;52.142;11.738;2022-11-20T01:04:41;100750.13;;;1.27;75.08
67029;BME280;53934;52.142;11.738;2022-11-20T01:07:08;100749.81;;;1.48;74.18
67029;BME280;53934;52.142;11.738;2022-11-20T01:09:35;100747.97;;;1.56;73.49
67029;BME280;53934;52.142;11.738;2022-11-20T01:12:02;100743.72;;;1.54;73.13
67029;BME280;53934;52.142;11.738;2022-11-20T01:14:28;100739.31;;;1.62;72.61
67029;BME280;53934;52.142;11.738;2022-11-20T01:16:55;100750.75;;;1.44;72.87
67029;BME280;53934;52.142;11.738;2022-11-20T01:19:22;100748.13;;;1.47;73.22
67029;BME280;53934;52.142;11.738;2022-11-20T01:21:51;100742.53;;;1.16;74.55
67029;BME280;53934;52.142;11.738;2022-11-20T01:24:19;100739.75;;;1.31;74.46
67029;BME280;53934;52.142;11.738;2022-11-20T01:26:49;100733.59;;;1.38;74.13
67029;BME280;53934;52.142;11.738;2022-11-20T01:29:21;100731.22;;;1.25;74.12
67029;BME280;53934;52.142;11.738;2022-11-20T01:31:47;100742.91;;;1.50;73.43
67029;BME280;53934;52.142;11.738;2022-11-20T01:34:16;100731.72;;;1.50;73.28
67029;BME280;53934;52.142;11.738;2022-11-20T01:36:43;100723.75;;;1.63;72.99
67029;BME280;53934;52.142;11.738;2022-11-20T01:39:13;100722.72;;;1.18;74.30
67029;BME280;53934;52.142;11.738;2022-11-20T01:41:40;100730.31;;;1.27;74.65
67029;BME280;53934;52.142;11.738;2022-11-20T01:44:47;100727.78;;;1.24;74.82
67029;BME280;53934;52.142;11.738;2022-11-20T01:47:16;100727.69;;;1.32;74.07
67029;BME280;53934;52.142;11.738;2022-11-20T01:49:48;100722.25;;;1.48;73.94
67029;BME280;53934;52.142;11.738;2022-11-20T01:52:20;100722.38;;;1.41;73.54
67029;BME280;53934;52.142;11.738;2022-11-20T01:54:52;100722.69;;;1.20;74.83
67029;BME280;53934;52.142;11.738;2022-11-20T01:57:21;100712.53;;;1.06;75.79
67029;BME280;53934;52.142;11.738;2022-11-20T01:59:53;100717.63;;;1.12;75.57
67029;BME280;53934;52.142;11.738;2022-11-20T02:02:23;100717.75;;;1.02;75.65
67029;BME280;53934;52.142;11.738;2022-11-20T02:04:51;100714.13;;;1.18;75.28
67029;BME280;53934;52.142;11.738;2022-11-20T02:07:20;100721.00;;;1.16;75.42
67029;BME280;53934;52.142;11.738;2022-11-20T02:09:48;100717.56;;;1.17;75.57
67029;BME280;53934;52.142;11.738;2022-11-20T02:12:15;100712.50;;;1.11;75.64
67029;BME280;53934;52.142;11.738;2022-11-20T02:14:57;100712.03;;;1.42;74.91
67029;BME280;53934;52.142;11.738;2022-11-20T02:17:24;100708.28;;;1.60;73.87
67029;BME280;53934;52.142;11.738;2022-11-20T02:19:51;100700.53;;;1.60;74.22
67029;BME280;53934;52.142;11.738;2022-11-20T02:22:22;100695.06;;;1.80;73.03
67029;BME280;53934;52.142;11.738;2022-11-20T02:24:53;100697.72;;;1.20;75.26
67029;BME280;53934;52.142;11.738;2022-11-20T02:27:20;100696.31;;;0.98;76.95
67029;BME280;53934;52.142;11.738;2022-11-20T02:29:51;100692.91;;;0.94;77.09
67029;BME280;53934;52.142;11.738;2022-11-20T02:32:19;100698.13;;;0.91;77.05
67029;BME280;53934;52.142;11.738;2022-11-20T02:34:45;100693.25;;;1.31;75.90
67029;BME280;53934;52.142;11.738;2022-11-20T02:37:12;100690.50;;;1.42;74.77
67029;BME280;53934;52.142;11.738;2022-11-20T02:39:39;100682.25;;;1.72;73.57
67029;BME280;53934;52.142;11.738;2022-11-20T02:42:07;100686.69;;;1.66;73.88
67029;BME280;53934;52.142;11.738;2022-11-20T02:44:34;100691.50;;;1.85;73.48
67029;BME280;53934;52.142;11.738;2022-11-20T02:47:00;100688.09;;;1.83;73.36
67029;BME280;53934;52.142;11.738;2022-11-20T02:49:27;100684.28;;;2.06;72.76
67029;BME280;53934;52.142;11.738;2022-11-20T02:51:53;100678.72;;;1.78;73.89
67029;BME280;53934;52.142;11.738;2022-11-20T02:54:20;100687.09;;;1.38;75.52
67029;BME280;53934;52.142;11.738;2022-11-20T02:56:46;100680.84;;;1.53;75.30
67029;BME280;53934;52.142;11.738;2022-11-20T02:59:14;100682.44;;;1.62;74.83
67029;BME280;53934;52.142;11.738;2022-11-20T03:01:40;100675.84;;;1.44;75.67
67029;BME280;53934;52.142;11.738;2022-11-20T03:04:07;100673.78;;;1.64;75.40
67029;BME280;53934;52.142;11.738;2022-11-20T03:06:34;100674.44;;;1.77;74.73
67029;BME280;53934;52.142;11.738;2022-11-20T03:09:01;100671.63;;;1.89;74.21
67029;BME280;53934;52.142;11.738;2022-11-20T03:11:28;100668.50;;;1.70;74.61
67029;BME280;53934;52.142;11.738;2022-11-20T03:13:55;100676.09;;;1.26;76.17
67029;BME280;53934;52.142;11.738;2022-11-20T03:16:23;100669.31;;;1.20;77.46
67029;BME280;53934;52.142;11.738;2022-11-20T03:18:52;100662.69;;;1.01;78.16
67029;BME280;53934;52.142;11.738;2022-11-20T03:21:18;100662.03;;;0.85;78.43
67029;BME280;53934;52.142;11.738;2022-11-20T03:23:45;100664.63;;;0.85;78.35
67029;BME280;53934;52.142;11.738;2022-11-20T03:26:13;100670.38;;;0.40;80.22
67029;BME280;53934;52.142;11.738;2022-11-20T03:28:41;100663.50;;;0.39;80.40
67029;BME280;53934;52.142;11.738;2022-11-20T03:31:09;100662.06;;;0.12;80.65
67029;BME280;53934;52.142;11.738;2022-11-20T03:33:38;100662.09;;;0.11;80.76
67029;BME280;53934;52.142;11.738;2022-11-20T03:36:06;100661.56;;;-0.23;81.55
67029;BME280;53934;52.142;11.738;2022-11-20T03:38:34;100664.78;;;-1.10;84.36
67029;BME280;53934;52.142;11.738;2022-11-20T03:41:01;100671.75;;;-1.33;84.86
67029;BME280;53934;52.142;11.738;2022-11-20T03:43:28;100659.84;;;-1.58;84.97
67029;BME280;53934;52.142;11.738;2022-11-20T03:45:55;100671.00;;;-1.56;85.63
67029;BME280;53934;52.142;11.738;2022-11-20T03:48:22;100661.63;;;-1.69;85.90
67029;BME280;53934;52.142;11.738;2022-11-20T03:50:49;100663.38;;;-1.83;85.93
67029;BME280;53934;52.142;11.738;2022-11-20T03:53:16;100654.75;;;-1.60;84.98
67029;BME280;53934;52.142;11.738;2022-11-20T03:55:42;100664.16;;;-1.66;84.63
67029;BME280;53934;52.142;11.738;2022-11-20T03:58:09;100657.34;;;-1.69;83.73
67029;BME280;53934;52.142;11.738;2022-11-20T04:00:36;100656.50;;;-1.77;84.18
67029;BME280;53934;52.142;11.738;2022-11-20T04:03:03;100648.75;;;-1.68;83.39
67029;BME280;53934;52.142;11.738;2022-11-20T04:05:30;100662.41;;;-1.54;82.61
67029;BME280;53934;52.142;11.738;2022-11-20T04:07:58;100652.19;;;-1.73;83.50
67029;BME280;53934;52.142;11.738;2022-11-20T04:10:24;100658.97;;;-1.47;82.09
67029;BME280;53934;52.142;11.738;2022-11-20T04:12:50;100652.00;;;-1.28;81.41
67029;BME280;53934;52.142;11.738;2022-11-20T04:15:17;100653.00;;;-1.62;82.66
67029;BME280;53934;52.142;11.738;2022-11-20T04:17:43;100647.09;;;-1.75;83.38
67029;BME280;53934;52.142;11.738;2022-11-20T04:20:10;100648.78;;;-1.71;83.45
67029;BME280;53934;52.142;11.738;2022-11-20T04:22:37;100644.31;;;-1.29;81.99
67029;BME280;53934;52.142;11.738;2022-11-20T04:25:05;100646.16;;;-1.62;83.26
67029;BME280;53934;52.142;11.738;2022-11-20T04:27:32;100647.72;;;-1.26;81.70
67029;BME280;53934;52.142;11.738;2022-11-20T04:29:58;100646.69;;;-0.98;80.77
67029;BME280;53934;52.142;11.738;2022-11-20T04:32:25;100643.44;;;-1.33;81.92
67029;BME280;53934;52.142;11.738;2022-11-20T04:34:51;100640.84;;;-1.24;81.71
67029;BME280;53934;52.142;11.738;2022-11-20T04:37:17;100640.84;;;-1.22;81.53
67029;BME280;53934;52.142;11.738;2022-11-20T04:39:44;100639.94;;;-1.17;81.87
67029;BME280;53934;52.142;11.738;2022-11-20T04:42:12;100636.50;;;-1.17;80.91
67029;BME280;53934;52.142;11.738;2022-11-20T04:44:58;100634.03;;;-1.31;82.31
67029;BME280;53934;52.142;11.738;2022-11-20T04:47:24;100646.84;;;-1.25;81.95
67029;BME280;53934;52.142;11.738;2022-11-20T04:49:51;100635.66;;;-1.18;81.33
67029;BME280;53934;52.142;11.738;2022-11-20T04:52:17;100635.44;;;-0.81;80.14
67029;BME280;53934;52.142;11.738;2022-11-20T04:54:44;100629.50;;;-0.94;80.02
67029;BME280;53934;52.142;11.738;2022-11-20T04:57:14;100645.13;;;-1.24;81.15
67029;BME280;53934;52.142;11.738;2022-11-20T04:59:41;100643.31;;;-1.06;80.52
67029;BME280;53934;52.142;11.738;2022-11-20T05:02:07;100633.91;;;-1.10;81.22
67029;BME280;53934;52.142;11.738;2022-11-20T05:04:34;100633.31;;;-1.62;83.15
67029;BME280;53934;52.142;11.738;2022-11-20T05:07:00;100637.59;;;-1.56;83.53
67029;BME280;53934;52.142;11.738;2022-11-20T05:09:26;100630.66;;;-1.42;83.34
67029;BME280;53934;52.142;11.738;2022-11-20T05:11:53;100628.91;;;-1.40;82.57
67029;BME280;53934;52.142;11.738;2022-11-20T05:14:21;100627.75;;;-0.86;81.40
67029;BME280;53934;52.142;11.738;2022-11-20T05:16:47;100621.50;;;-0.56;79.03
67029;BME280;53934;52.142;11.738;2022-11-20T05:19:14;100619.72;;;-0.50;78.44
67029;BME280;53934;52.142;11.738;2022-11-20T05:21:40;100623.50;;;-0.94;80.36
67029;BME280;53934;52.142;11.738;2022-11-20T05:24:07;100618.38;;;-0.93;80.47
67029;BME280;53934;52.142;11.738;2022-11-20T05:26:33;100627.84;;;-1.03;81.10
67029;BME280;53934;52.142;11.738;2022-11-20T05:29:00;100623.47;;;-0.91;80.85
67029;BME280;53934;52.142;11.738;2022-11-20T05:31:27;100622.50;;;-0.72;79.90
67029;BME280;53934;52.142;11.738;2022-11-20T05:33:55;100617.19;;;-0.54;78.87
67029;BME280;53934;52.142;11.738;2022-11-20T05:36:22;100619.13;;;-0.80;79.99
67029;BME280;53934;52.142;11.738;2022-11-20T05:38:48;100610.75;;;-1.08;81.10
67029;BME280;53934;52.142;11.738;2022-11-20T05:41:17;100609.81;;;-1.00;81.81
67029;BME280;53934;52.142;11.738;2022-11-20T05:43:45;100609.19;;;-1.35;82.59
67029;BME280;53934;52.142;11.738;2022-11-20T05:46:13;100605.94;;;-1.76;84.26
67029;BME280;53934;52.142;11.738;2022-11-20T05:48:42;100608.50;;;-1.73;85.37
67029;BME280;53934;52.142;11.738;2022-11-20T05:51:11;100605.09;;;-1.75;85.48
67029;BME280;53934;52.142;11.738;2022-11-20T05:53:38;100611.00;;;-1.54;84.47
67029;BME280;53934;52.142;11.738;2022-11-20T05:56:07;100604.25;;;-1.79;85.31
67029;BME280;53934;52.142;11.738;2022-11-20T05:58:35;100610.22;;;-1.68;85.19
67029;BME280;53934;52.142;11.738;2022-11-20T06:01:06;100599.94;;;-1.72;85.34
67029;BME280;53934;52.142;11.738;2022-11-20T06:03:33;100599.91;;;-1.63;84.71
67029;BME280;53934;52.142;11.738;2022-11-20T06:06:01;100604.19;;;-1.70;85.23
67029;BME280;53934;52.142;11.738;2022-11-20T06:08:28;100598.97;;;-1.49;84.81
67029;BME280;53934;52.142;11.738;2022-11-20T06:10:55;100596.16;;;-1.08;82.32
67029;BME280;53934;52.142;11.738;2022-11-20T06:13:21;100592.94;;;-1.43;82.86
67029;BME280;53934;52.142;11.738;2022-11-20T06:15:48;100600.56;;;-1.26;83.04
67029;BME280;53934;52.142;11.738;2022-11-20T06:18:15;100598.97;;;-1.49;83.38
67029;BME280;53934;52.142;11.738;2022-11-20T06:20:41;100604.19;;;-1.70;84.72
67029;BME280;53934;52.142;11.738;2022-11-20T06:23:09;100600.75;;;-1.60;84.15
67029;BME280;53934;52.142;11.738;2022-11-20T06:25:37;100599.75;;;-1.34;83.27
67029;BME280;53934;52.142;11.738;2022-11-20T06:28:04;100597.22;;;-1.43;83.31
67029;BME280;53934;52.142;11.738;2022-11-20T06:30:30;100598.06;;;-1.38;83.27
67029;BME280;53934;52.142;11.738;2022-11-20T06:32:56;100603.25;;;-1.49;82.64
67029;BME280;53934;52.142;11.738;2022-11-20T06:35:23;100602.53;;;-1.78;84.08
67029;BME280;53934;52.142;11.738;2022-11-20T06:37:49;100600.66;;;-1.41;83.02
67029;BME280;53934;52.142;11.738;2022-11-20T06:40:17;100599.03;;;-1.56;82.85
67029;BME280;53934;52.142;11.738;2022-11-20T06:42:44;100603.28;;;-1.52;81.83
67029;BME280;53934;52.142;11.738;2022-11-20T06:45:10;100603.44;;;-1.99;83.68
67029;BME280;53934;52.142;11.738;2022-11-20T06:47:36;100601.66;;;-1.73;83.24
67029;BME280;53934;52.142;11.738;2022-11-20T06:50:04;100595.66;;;-1.73;82.66
67029;BME280;53934;52.142;11.738;2022-11-20T06:52:30;100591.47;;;-1.92;83.17
67029;BME280;53934;52.142;11.738;2022-11-20T06:54:56;100590.53;;;-1.75;82.95
67029;BME280;53934;52.142;11.738;2022-11-20T06:57:24;100591.41;;;-1.74;82.13
67029;BME280;53934;52.142;11.738;2022-11-20T06:59:51;100600.81;;;-1.79;82.52
67029;BME280;53934;52.142;11.738;2022-11-20T07:02:17;100599.16;;;-1.96;83.03
67029;BME280;53934;52.142;11.738;2022-11-20T07:04:43;100603.59;;;-2.64;85.59
67029;BME280;53934;52.142;11.738;2022-11-20T07:07:10;100607.88;;;-2.81;87.69
67029;BME280;53934;52.142;11.738;2022-11-20T07:09:36;100610.44;;;-2.78;88.19
67029;BME280;53934;52.142;11.738;2022-11-20T07:12:03;100600.16;;;-2.62;87.23
67029;BME280;53934;52.142;11.738;2022-11-20T07:14:31;100601.88;;;-2.67;87.14
67029;BME280;53934;52.142;11.738;2022-11-20T07:16:57;100605.28;;;-2.90;88.55
67029;BME280;53934;52.142;11.738;2022-11-20T07:19:24;100598.47;;;-2.70;88.62
67029;BME280;53934;52.142;11.738;2022-11-20T07:21:50;100594.16;;;-2.56;87.94
67029;BME280;53934;52.142;11.738;2022-11-20T07:24:17;100586.44;;;-2.46;87.05
67029;BME280;53934;52.142;11.738;2022-11-20T07:26:46;100582.16;;;-2.47;87.17
67029;BME280;53934;52.142;11.738;2022-11-20T07:29:12;100574.47;;;-2.33;86.37
67029;BME280;53934;52.142;11.738;2022-11-20T07:31:40;100569.28;;;-2.15;85.35
67029;BME280;53934;52.142;11.738;2022-11-20T07:34:07;100570.94;;;-2.05;85.59
67029;BME280;53934;52.142;11.738;2022-11-20T07:36:33;100577.72;;;-1.91;83.96
67029;BME280;53934;52.142;11.738;2022-11-20T07:39:00;100591.25;;;-1.47;82.46
67029;BME280;53934;52.142;11.738;2022-11-20T07:41:26;100615.00;;;-1.07;80.72
67029;BME280;53934;52.142;11.738;2022-11-20T07:43:54;100594.41;;;-1.07;81.23
67029;BME280;53934;52.142;11.738;2022-11-20T07:46:20;100605.16;;;-0.54;79.77
67029;BME280;53934;52.142;11.738;2022-11-20T07:48:48;100596.00;;;-0.86;79.94
67029;BME280;53934;52.142;11.738;2022-11-20T07:51:15;100594.47;;;-1.12;81.15
67029;BME280;53934;52.142;11.738;2022-11-20T07:53:41;100584.19;;;-1.13;80.61
67029;BME280;53934;52.142;11.738;2022-11-20T07:56:08;100593.38;;;-0.80;79.73
67029;BME280;53934;52.142;11.738;2022-11-20T07:58:34;100590.41;;;-0.33;78.56
67029;BME280;53934;52.142;11.738;2022-11-20T08:01:04;100586.72;;;-1.10;79.80
67029;BME280;53934;52.142;11.738;2022-11-20T08:03:31;100592.16;;;-1.62;83.31
67029;BME280;53934;52.142;11.738;2022-11-20T08:06:00;100587.97;;;-1.76;84.01
67029;BME280;53934;52.142;11.738;2022-11-20T08:08:27;100576.56;;;-1.28;82.98
67029;BME280;53934;52.142;11.738;2022-11-20T08:10:53;100579.19;;;-1.39;82.26
67029;BME280;53934;52.142;11.738;2022-11-20T08:13:40;100575.75;;;-1.36;82.86
67029;BME280;53934;52.142;11.738;2022-11-20T08:16:24;100578.13;;;-1.05;82.29
67029;BME280;53934;52.142;11.738;2022-11-20T08:18:50;100579.19;;;-1.39;83.73
67029;BME280;53934;52.142;11.738;2022-11-20T08:21:18;100577.56;;;-1.49;84.20
67029;BME280;53934;52.142;11.738;2022-11-20T08:23:44;100579.31;;;-1.56;85.53
67029;BME280;53934;52.142;11.738;2022-11-20T08:26:11;100580.84;;;-1.26;84.37
67029;BME280;53934;52.142;11.738;2022-11-20T08:28:37;100582.38;;;-1.01;83.74
67029;BME280;53934;52.142;11.738;2022-11-20T08:31:04;100587.47;;;-0.96;82.99
67029;BME280;53934;52.142;11.738;2022-11-20T08:33:31;100583.34;;;-1.18;83.15
67029;BME280;53934;52.142;11.738;2022-11-20T08:35:59;100585.28;;;-1.54;84.98
67029;BME280;53934;52.142;11.738;2022-11-20T08:38:27;100576.72;;;-1.59;86.27
67029;BME280;53934;52.142;11.738;2022-11-20T08:40:56;100581.78;;;-1.42;84.75
67029;BME280;53934;52.142;11.738;2022-11-20T08:43:40;100582.56;;;-1.26;83.96
67029;BME280;53934;52.142;11.738;2022-11-20T08:46:06;100581.53;;;-1.01;83.11
67029;BME280;53934;52.142;11.738;2022-11-20T08:48:33;100578.84;;;-0.87;82.17
67029;BME280;53934;52.142;11.738;2022-11-20T08:50:59;100579.00;;;-1.09;83.64
67029;BME280;53934;52.142;11.738;2022-11-20T08:53:27;100581.28;;;-0.72;83.02
67029;BME280;53934;52.142;11.738;2022-11-20T08:55:54;100574.91;;;-0.32;82.00
67029;BME280;53934;52.142;11.738;2022-11-20T08:58:20;100576.63;;;-0.31;80.97
67029;BME280;53934;52.142;11.738;2022-11-20T09:00:47;100569.97;;;-0.53;81.75
67029;BME280;53934;52.142;11.738;2022-11-20T09:03:13;100573.47;;;-0.60;81.71
67029;BME280;53934;52.142;11.738;2022-11-20T09:05:40;100575.19;;;-0.62;81.51
67029;BME280;53934;52.142;11.738;2022-11-20T09:08:06;100580.25;;;-0.50;81.75
67029;BME280;53934;52.142;11.738;2022-11-20T09:10:34;100566.53;;;-0.52;81.24
67029;BME280;53934;52.142;11.738;2022-11-20T09:13:01;100564.72;;;-0.44;80.87
67029;BME280;53934;52.142;11.738;2022-11-20T09:15:28;100567.28;;;-0.41;81.24
67029;BME280;53934;52.142;11.738;2022-11-20T09:17:56;100568.03;;;-0.30;81.56
67029;BME280;53934;52.142;11.738;2022-11-20T09:20:23;100572.38;;;-0.33;81.22
67029;BME280;53934;52.142;11.738;2022-11-20T09:22:50;100565.56;;;-0.43;80.92
67029;BME280;53934;52.142;11.738;2022-11-20T09:25:17;100568.16;;;-0.42;82.12
67029;BME280;53934;52.142;11.738;2022-11-20T09:27:45;100570.41;;;-0.15;81.15
67029;BME280;53934;52.142;11.738;2022-11-20T09:30:12;100562.88;;;-0.31;82.30
67029;BME280;53934;52.142;11.738;2022-11-20T09:32:39;100564.19;;;0.05;81.31
67029;BME280;53934;52.142;11.738;2022-11-20T09:35:06;100556.53;;;0.64;78.95
67029;BME280;53934;52.142;11.738;2022-11-20T09:37:33;100560.72;;;0.73;78.38
67029;BME280;53934;52.142;11.738;2022-11-20T09:39:59;100557.56;;;1.11;76.81
67029;BME280;53934;52.142;11.738;2022-11-20T09:42:34;100555.28;;;1.43;74.62
67029;BME280;53934;52.142;11.738;2022-11-20T09:45:16;100555.41;;;1.81;72.80
67029;BME280;53934;52.142;11.738;2022-11-20T09:47:58;100548.06;;;2.06;71.58
67029;BME280;53934;52.142;11.738;2022-11-20T09:50:31;100534.22;;;2.07;71.03
67029;BME280;53934;52.142;11.738;2022-11-20T09:53:11;100533.63;;;1.94;71.61
67029;BME280;53934;52.142;11.738;2022-11-20T09:55:38;100536.03;;;1.59;73.87
67029;BME280;53934;52.142;11.738;2022-11-20T09:58:06;100535.75;;;1.27;74.48
67029;BME280;53934;52.142;11.738;2022-11-20T10:00:36;100534.59;;;1.89;73.96
67029;BME280;53934;52.142;11.738;2022-11-20T10:03:10;100537.78;;;2.43;71.88
67029;BME280;53934;52.142;11.738;2022-11-20T10:05:42;100529.41;;;2.70;70.46
67029;BME280;53934;52.142;11.738;2022-11-20T10:08:15;100528.50;;;3.08;68.82
67029;BME280;53934;52.142;11.738;2022-11-20T10:10:45;100542.72;;;3.26;67.85
67029;BME280;53934;52.142;11.738;2022-11-20T10:13:20;100534.66;;;3.38;66.92
67029;BME280;53934;52.142;11.738;2022-11-20T10:16:00;100533.94;;;3.65;65.75
67029;BME280;53934;52.142;11.738;2022-11-20T10:18:40;100525.31;;;3.65;66.51
67029;BME280;53934;52.142;11.738;2022-11-20T10:21:14;100525.31;;;3.65;66.06
67029;BME280;53934;52.142;11.738;2022-11-20T10:23:56;100520.19;;;2.96;68.03
67029;BME280;53934;52.142;11.738;2022-11-20T10:26:31;100530.22;;;3.43;66.99
67029;BME280;53934;52.142;11.738;2022-11-20T10:29:10;100526.13;;;3.33;67.07
67029;BME280;53934;52.142;11.738;2022-11-20T10:31:40;100520.81;;;3.71;66.91
67029;BME280;53934;52.142;11.738;2022-11-20T10:34:17;100519.09;;;3.04;67.65
67029;BME280;53934;52.142;11.738;2022-11-20T10:36:49;100511.84;;;2.83;69.16
67029;BME280;53934;52.142;11.738;2022-11-20T10:39:24;100502.97;;;3.27;68.67
67029;BME280;53934;52.142;11.738;2022-11-20T10:41:53;100507.31;;;3.89;66.52
67029;BME280;53934;52.142;11.738;2022-11-20T10:44:21;100503.31;;;4.09;64.15
67029;BME280;53934;52.142;11.738;2022-11-20T10:47:05;100494.91;;;4.01;65.58
67029;BME280;53934;52.142;11.738;2022-11-20T10:49:35;100497.84;;;3.88;64.85
67029;BME280;53934;52.142;11.738;2022-11-20T10:52:06;100495.47;;;4.10;64.50
67029;BME280;53934;52.142;11.738;2022-11-20T10:54:40;100494.00;;;4.02;64.53
67029;BME280;53934;52.142;11.738;2022-11-20T10:57:16;100488.47;;;4.14;64.15
67029;BME280;53934;52.142;11.738;2022-11-20T11:00:00;100482.63;;;4.35;65.07
67029;BME280;53934;52.142;11.738;2022-11-20T11:02:35;100483.53;;;4.34;63.62
67029;BME280;53934;52.142;11.738;2022-11-20T11:05:14;100483.09;;;4.20;63.70
67029;BME280;53934;52.142;11.738;2022-11-20T11:07:44;100480.47;;;4.49;63.03
67029;BME280;53934;52.142;11.738;2022-11-20T11:10:15;100485.63;;;4.21;63.42
67029;BME280;53934;52.142;11.738;2022-11-20T11:12:43;100481.97;;;4.28;63.65
67029;BME280;53934;52.142;11.738;2022-11-20T11:15:14;100479.41;;;4.55;63.08
67029;BME280;53934;52.142;11.738;2022-11-20T11:17:47;100480.03;;;4.63;63.33
67029;BME280;53934;52.142;11.738;2022-11-20T11:20:16;100466.00;;;4.68;63.25
67029;BME280;53934;52.142;11.738;2022-11-20T11:22:45;100467.50;;;4.75;62.84
67029;BME280;53934;52.142;11.738;2022-11-20T11:25:27;100465.09;;;4.69;61.85
67029;BME280;53934;52.142;11.738;2022-11-20T11:27:55;100464.09;;;4.73;61.24
67029;BME280;53934;52.142;11.738;2022-11-20T11:30:23;100462.69;;;4.91;62.15
67029;BME280;53934;52.142;11.738;2022-11-20T11:33:02;100467.16;;;5.12;61.96
67029;BME280;53934;52.142;11.738;2022-11-20T11:35:29;100472.97;;;5.19;61.98
67029;BME280;53934;52.142;11.738;2022-11-20T11:38:04;100477.66;;;5.59;62.10
67029;BME280;53934;52.142;11.738;2022-11-20T11:40:34;100473.97;;;5.89;61.01
67029;BME280;53934;52.142;11.738;2022-11-20T11:43:05;100482.09;;;5.80;60.12
67029;BME280;53934;52.142;11.738;2022-11-20T11:45:53;100482.88;;;5.82;58.11
67029;BME280;53934;52.142;11.738;2022-11-20T11:48:21;100480.31;;;5.80;58.00
67029;BME280;53934;52.142;11.738;2022-11-20T11:50:48;100480.31;;;5.32;58.38
67029;BME280;53934;52.142;11.738;2022-11-20T11:53:16;100477.88;;;5.28;59.98
67029;BME280;53934;52.142;11.738;2022-11-20T11:55:46;100474.66;;;5.69;59.17
67029;BME280;53934;52.142;11.738;2022-11-20T11:58:24;100465.50;;;6.07;58.37
67029;BME280;53934;52.142;11.738;2022-11-20T12:00:58;100463.25;;;5.98;58.46
67029;BME280;53934;52.142;11.738;2022-11-20T12:03:34;100456.09;;;6.03;57.31
67029;BME280;53934;52.142;11.738;2022-11-20T12:06:06;100471.25;;;6.15;56.93
67029;BME280;53934;52.142;11.738;2022-11-20T12:08:42;100473.47;;;6.26;59.04
67029;BME280;53934;52.142;11.738;2022-11-20T12:11:13;100481.16;;;6.51;59.83
67029;BME280;53934;52.142;11.738;2022-11-20T12:13:46;100479.94;;;6.38;58.28
67029;BME280;53934;52.142;11.738;2022-11-20T12:16:18;100467.53;;;6.44;58.39
67029;BME280;53934;52.142;11.738;2022-11-20T12:18:48;100471.88;;;5.99;58.61
67029;BME280;53934;52.142;11.738;2022-11-20T12:21:20;100468.81;;;6.11;59.08
67029;BME280;53934;52.142;11.738;2022-11-20T12:24:06;100463.13;;;5.53;61.63
67029;BME280;53934;52.142;11.738;2022-11-20T12:26:48;100453.66;;;5.75;60.81
67029;BME280;53934;52.142;11.738;2022-11-20T12:29:27;100445.31;;;5.91;63.16
67029;BME280;53934;52.142;11.738;2022-11-20T12:32:14;100442.16;;;6.27;59.89
67029;BME280;53934;52.142;11.738;2022-11-20T12:34:54;100443.75;;;6.53;59.86
67029;BME280;53934;52.142;11.738;2022-11-20T12:37:35;100439.00;;;6.63;58.73
67029;BME280;53934;52.142;11.738;2022-11-20T12:40:17;100439.63;;;6.48;59.61
67029;BME280;53934;52.142;11.738;2022-11-20T12:42:55;100442.97;;;6.06;58.97
67029;BME280;53934;52.142;11.738;2022-11-20T12:46:05;100446.38;;;6.08;59.84
67029;BME280;53934;52.142;11.738;2022-11-20T12:49:02;100436.94;;;5.81;59.93
67029;BME280;53934;52.142;11.738;2022-11-20T12:51:51;100435.44;;;5.51;61.85
67029;BME280;53934;52.142;11.738;2022-11-20T12:54:34;100440.47;;;5.80;60.26
67029;BME280;53934;52.142;11.738;2022-11-20T12:57:09;100435.41;;;6.00;59.78